sensor_id;sensor_type;location;lat;lon;timestamp;temperature;humidity
12329;DHT22;6230;52.390;10.256;2022-12-22T00:01:58;10.50;80.80
12329;DHT22;6230;52.390;10.256;2022-12-22T00:04:44;10.50;80.00
12329;DHT22;6230;52.390;10.256;2022-12-22T00:07:29;10.50;79.90
12329;DHT22;6230;52.390;10.256;2022-12-22T00:10:13;10.50;80.00
12329;DHT22;6230;52.390;10.256;2022-12-22T00:12:57;10.50;80.00
12329;DHT22;6230;52.390;10.256;2022-12-22T00:15:41;10.50;80.10
12329;DHT22;6230;52.390;10.256;2022-12-22T00:18:26;10.50;80.20
12329;DHT22;6230;52.390;10.256;2022-12-22T00:21:11;10.50;80.20
12329;DHT22;6230;52.390;10.256;2022-12-22T00:23:56;10.50;80.40
12329;DHT22;6230;52.390;10.256;2022-12-22T00:26:41;10.50;80.30
12329;DHT22;6230;52.390;10.256;2022-12-22T00:29:27;10.50;80.40
12329;DHT22;6230;52.390;10.256;2022-12-22T00:32:15;10.50;80.40
12329;DHT22;6230;52.390;10.256;2022-12-22T00:34:59;10.50;80.40
12329;DHT22;6230;52.390;10.256;2022-12-22T00:37:44;10.50;80.50
12329;DHT22;6230;52.390;10.256;2022-12-22T00:40:28;10.50;80.50
12329;DHT22;6230;52.390;10.256;2022-12-22T00:43:13;10.50;80.60
12329;DHT22;6230;52.390;10.256;2022-12-22T00:45:58;10.50;80.70
12329;DHT22;6230;52.390;10.256;2022-12-22T00:48:44;10.50;80.60
12329;DHT22;6230;52.390;10.256;2022-12-22T00:51:29;10.50;80.60
12329;DHT22;6230;52.390;10.256;2022-12-22T00:54:14;10.50;80.70
12329;DHT22;6230;52.390;10.256;2022-12-22T00:57:00;10.50;80.70
12329;DHT22;6230;52.390;10.256;2022-12-22T00:59:47;10.60;80.80
12329;DHT22;6230;52.390;10.256;2022-12-22T01:02:32;10.50;80.80
12329;DHT22;6230;52.390;10.256;2022-12-22T01:05:16;10.50;80.80
12329;DHT22;6230;52.390;10.256;2022-12-22T01:08:00;10.50;80.80
12329;DHT22;6230;52.390;10.256;2022-12-22T01:10:44;10.60;80.80
12329;DHT22;6230;52.390;10.256;2022-12-22T01:13:29;10.60;80.80
12329;DHT22;6230;52.390;10.256;2022-12-22T01:16:13;10.60;80.80
12329;DHT22;6230;52.390;10.256;2022-12-22T01:18:58;10.60;80.80
12329;DHT22;6230;52.390;10.256;2022-12-22T01:21:42;10.60;80.80
12329;DHT22;6230;52.390;10.256;2022-12-22T01:24:28;10.60;80.80
12329;DHT22;6230;52.390;10.256;2022-12-22T01:27:14;10.60;80.80
12329;DHT22;6230;52.390;10.256;2022-12-22T01:29:59;10.60;80.90
12329;DHT22;6230;52.390;10.256;2022-12-22T01:32:43;10.60;80.80
12329;DHT22;6230;52.390;10.256;2022-12-22T01:35:32;10.60;80.90
12329;DHT22;6230;52.390;10.256;2022-12-22T01:38:17;10.60;80.90
12329;DHT22;6230;52.390;10.256;2022-12-22T01:41:03;10.70;80.90
12329;DHT22;6230;52.390;10.256;2022-12-22T01:43:48;10.70;80.90
12329;DHT22;6230;52.390;10.256;2022-12-22T01:46:42;10.70;81.00
12329;DHT22;6230;52.390;10.256;2022-12-22T01:49:40;10.70;81.10
12329;DHT22;6230;52.390;10.256;2022-12-22T01:52:29;10.70;81.10
12329;DHT22;6230;52.390;10.256;2022-12-22T01:55:18;10.70;81.00
12329;DHT22;6230;52.390;10.256;2022-12-22T01:58:04;10.70;81.10
12329;DHT22;6230;52.390;10.256;2022-12-22T02:00:50;10.70;81.10
12329;DHT22;6230;52.390;10.256;2022-12-22T02:03:34;10.70;81.10
12329;DHT22;6230;52.390;10.256;2022-12-22T02:06:30;10.70;81.20
12329;DHT22;6230;52.390;10.256;2022-12-22T02:09:48;10.70;81.20
12329;DHT22;6230;52.390;10.256;2022-12-22T02:13:41;10.70;81.10
12329;DHT22;6230;52.390;10.256;2022-12-22T02:16:32;10.80;81.00
12329;DHT22;6230;52.390;10.256;2022-12-22T02:25:42;10.80;80.90
12329;DHT22;6230;52.390;10.256;2022-12-22T02:28:30;10.80;80.80
12329;DHT22;6230;52.390;10.256;2022-12-22T02:31:14;10.80;80.90
12329;DHT22;6230;52.390;10.256;2022-12-22T02:33:58;10.70;80.90
12329;DHT22;6230;52.390;10.256;2022-12-22T02:36:54;10.70;81.00
12329;DHT22;6230;52.390;10.256;2022-12-22T02:42:49;10.80;81.10
12329;DHT22;6230;52.390;10.256;2022-12-22T02:45:51;10.80;81.10
12329;DHT22;6230;52.390;10.256;2022-12-22T02:48:51;10.80;81.00
12329;DHT22;6230;52.390;10.256;2022-12-22T02:51:45;10.80;81.00
12329;DHT22;6230;52.390;10.256;2022-12-22T02:54:31;10.90;81.10
12329;DHT22;6230;52.390;10.256;2022-12-22T02:57:17;10.80;80.90
12329;DHT22;6230;52.390;10.256;2022-12-22T03:00:03;10.80;80.80
12329;DHT22;6230;52.390;10.256;2022-12-22T03:02:48;10.90;80.90
12329;DHT22;6230;52.390;10.256;2022-12-22T03:05:32;10.90;80.90
12329;DHT22;6230;52.390;10.256;2022-12-22T03:08:16;10.90;80.80
12329;DHT22;6230;52.390;10.256;2022-12-22T03:11:00;10.90;80.70
12329;DHT22;6230;52.390;10.256;2022-12-22T03:13:44;10.90;80.70
12329;DHT22;6230;52.390;10.256;2022-12-22T03:16:28;10.90;80.70
12329;DHT22;6230;52.390;10.256;2022-12-22T03:19:12;10.90;80.70
12329;DHT22;6230;52.390;10.256;2022-12-22T03:21:56;10.90;80.80
12329;DHT22;6230;52.390;10.256;2022-12-22T03:24:40;10.90;81.00
12329;DHT22;6230;52.390;10.256;2022-12-22T03:27:24;10.80;80.90
12329;DHT22;6230;52.390;10.256;2022-12-22T03:29:50;10.80;81.10
12329;DHT22;6230;52.390;10.256;2022-12-22T03:32:15;10.80;81.10
12329;DHT22;6230;52.390;10.256;2022-12-22T03:34:41;10.90;81.30
12329;DHT22;6230;52.390;10.256;2022-12-22T03:37:06;10.80;81.20
12329;DHT22;6230;52.390;10.256;2022-12-22T03:39:32;10.90;81.20
12329;DHT22;6230;52.390;10.256;2022-12-22T03:41:57;10.90;81.20
12329;DHT22;6230;52.390;10.256;2022-12-22T03:44:42;10.90;81.20
12329;DHT22;6230;52.390;10.256;2022-12-22T03:47:26;10.90;81.10
12329;DHT22;6230;52.390;10.256;2022-12-22T03:49:51;10.90;81.00
12329;DHT22;6230;52.390;10.256;2022-12-22T03:52:17;11.00;81.00
12329;DHT22;6230;52.390;10.256;2022-12-22T03:54:42;11.00;80.90
12329;DHT22;6230;52.390;10.256;2022-12-22T03:57:08;11.00;80.90
12329;DHT22;6230;52.390;10.256;2022-12-22T03:59:33;11.00;80.90
12329;DHT22;6230;52.390;10.256;2022-12-22T04:01:59;11.00;80.90
12329;DHT22;6230;52.390;10.256;2022-12-22T04:04:25;11.00;80.80
12329;DHT22;6230;52.390;10.256;2022-12-22T04:06:51;11.10;80.80
12329;DHT22;6230;52.390;10.256;2022-12-22T04:09:17;11.10;80.70
12329;DHT22;6230;52.390;10.256;2022-12-22T04:11:42;11.10;80.70
12329;DHT22;6230;52.390;10.256;2022-12-22T04:14:27;11.10;80.60
12329;DHT22;6230;52.390;10.256;2022-12-22T04:16:52;11.10;80.50
12329;DHT22;6230;52.390;10.256;2022-12-22T04:19:18;11.10;80.50
12329;DHT22;6230;52.390;10.256;2022-12-22T04:21:43;11.10;80.40
12329;DHT22;6230;52.390;10.256;2022-12-22T04:24:10;11.20;80.50
12329;DHT22;6230;52.390;10.256;2022-12-22T04:26:36;11.20;80.50
12329;DHT22;6230;52.390;10.256;2022-12-22T04:29:02;11.30;80.50
12329;DHT22;6230;52.390;10.256;2022-12-22T04:31:28;11.20;80.30
12329;DHT22;6230;52.390;10.256;2022-12-22T04:33:53;11.30;80.30
12329;DHT22;6230;52.390;10.256;2022-12-22T04:36:19;11.20;80.30
12329;DHT22;6230;52.390;10.256;2022-12-22T04:38:45;11.20;80.40
12329;DHT22;6230;52.390;10.256;2022-12-22T04:41:10;11.20;80.30
12329;DHT22;6230;52.390;10.256;2022-12-22T04:43:36;11.20;80.30
12329;DHT22;6230;52.390;10.256;2022-12-22T04:46:02;11.20;80.20
12329;DHT22;6230;52.390;10.256;2022-12-22T04:48:28;11.20;80.20
12329;DHT22;6230;52.390;10.256;2022-12-22T04:50:57;11.20;80.20
12329;DHT22;6230;52.390;10.256;2022-12-22T04:53:25;11.20;80.30
12329;DHT22;6230;52.390;10.256;2022-12-22T04:55:57;11.20;80.40
12329;DHT22;6230;52.390;10.256;2022-12-22T04:58:23;11.20;80.40
12329;DHT22;6230;52.390;10.256;2022-12-22T05:00:49;11.20;80.30
12329;DHT22;6230;52.390;10.256;2022-12-22T05:03:14;11.20;80.40
12329;DHT22;6230;52.390;10.256;2022-12-22T05:05:40;11.10;80.40
12329;DHT22;6230;52.390;10.256;2022-12-22T05:08:06;11.10;80.50
12329;DHT22;6230;52.390;10.256;2022-12-22T05:10:31;11.10;80.60
12329;DHT22;6230;52.390;10.256;2022-12-22T05:12:57;11.10;80.60
12329;DHT22;6230;52.390;10.256;2022-12-22T05:15:34;11.10;80.60
12329;DHT22;6230;52.390;10.256;2022-12-22T05:18:01;11.10;80.70
12329;DHT22;6230;52.390;10.256;2022-12-22T05:20:27;11.10;80.70
12329;DHT22;6230;52.390;10.256;2022-12-22T05:22:52;11.10;80.70
12329;DHT22;6230;52.390;10.256;2022-12-22T05:25:18;11.10;80.70
12329;DHT22;6230;52.390;10.256;2022-12-22T05:27:45;11.10;80.80
12329;DHT22;6230;52.390;10.256;2022-12-22T05:30:12;11.10;80.80
12329;DHT22;6230;52.390;10.256;2022-12-22T05:32:39;11.10;80.80
12329;DHT22;6230;52.390;10.256;2022-12-22T05:35:06;11.10;80.70
12329;DHT22;6230;52.390;10.256;2022-12-22T05:37:32;11.10;80.80
12329;DHT22;6230;52.390;10.256;2022-12-22T05:39:57;11.20;80.80
12329;DHT22;6230;52.390;10.256;2022-12-22T05:42:23;11.10;80.80
12329;DHT22;6230;52.390;10.256;2022-12-22T05:45:18;11.10;80.80
12329;DHT22;6230;52.390;10.256;2022-12-22T05:47:46;11.10;80.90
12329;DHT22;6230;52.390;10.256;2022-12-22T05:50:13;11.10;80.80
12329;DHT22;6230;52.390;10.256;2022-12-22T05:52:39;11.10;80.90
12329;DHT22;6230;52.390;10.256;2022-12-22T05:55:06;11.10;80.90
12329;DHT22;6230;52.390;10.256;2022-12-22T05:57:32;11.10;80.80
12329;DHT22;6230;52.390;10.256;2022-12-22T05:59:57;11.20;80.70
12329;DHT22;6230;52.390;10.256;2022-12-22T06:02:23;11.20;80.70
12329;DHT22;6230;52.390;10.256;2022-12-22T06:04:49;11.20;80.70
12329;DHT22;6230;52.390;10.256;2022-12-22T06:07:14;11.20;80.60
12329;DHT22;6230;52.390;10.256;2022-12-22T06:09:40;11.20;80.60
12329;DHT22;6230;52.390;10.256;2022-12-22T06:12:06;11.20;80.70
12329;DHT22;6230;52.390;10.256;2022-12-22T06:14:31;11.20;80.70
12329;DHT22;6230;52.390;10.256;2022-12-22T06:16:57;11.30;80.90
12329;DHT22;6230;52.390;10.256;2022-12-22T06:19:22;11.20;80.80
12329;DHT22;6230;52.390;10.256;2022-12-22T06:21:48;11.20;80.80
12329;DHT22;6230;52.390;10.256;2022-12-22T06:24:14;11.20;80.90
12329;DHT22;6230;52.390;10.256;2022-12-22T06:26:39;11.30;81.00
12329;DHT22;6230;52.390;10.256;2022-12-22T06:29:05;11.20;80.90
12329;DHT22;6230;52.390;10.256;2022-12-22T06:31:30;11.30;81.10
12329;DHT22;6230;52.390;10.256;2022-12-22T06:33:56;11.20;81.00
12329;DHT22;6230;52.390;10.256;2022-12-22T06:36:21;11.20;81.10
12329;DHT22;6230;52.390;10.256;2022-12-22T06:38:47;11.20;81.10
12329;DHT22;6230;52.390;10.256;2022-12-22T06:41:13;11.20;81.20
12329;DHT22;6230;52.390;10.256;2022-12-22T06:43:38;11.20;81.20
12329;DHT22;6230;52.390;10.256;2022-12-22T06:46:04;11.20;81.20
12329;DHT22;6230;52.390;10.256;2022-12-22T06:48:30;11.20;81.20
12329;DHT22;6230;52.390;10.256;2022-12-22T06:50:57;11.20;81.30
12329;DHT22;6230;52.390;10.256;2022-12-22T06:53:23;11.20;81.50
12329;DHT22;6230;52.390;10.256;2022-12-22T06:55:48;11.20;81.50
12329;DHT22;6230;52.390;10.256;2022-12-22T06:58:14;11.20;81.60
12329;DHT22;6230;52.390;10.256;2022-12-22T07:00:40;11.20;81.70
12329;DHT22;6230;52.390;10.256;2022-12-22T07:03:05;11.20;81.80
12329;DHT22;6230;52.390;10.256;2022-12-22T07:05:31;11.20;81.80
12329;DHT22;6230;52.390;10.256;2022-12-22T07:07:56;11.20;81.90
12329;DHT22;6230;52.390;10.256;2022-12-22T07:10:22;11.20;81.90
12329;DHT22;6230;52.390;10.256;2022-12-22T07:13:08;11.20;81.90
12329;DHT22;6230;52.390;10.256;2022-12-22T07:15:44;11.20;81.90
12329;DHT22;6230;52.390;10.256;2022-12-22T07:18:10;11.20;82.00
12329;DHT22;6230;52.390;10.256;2022-12-22T07:20:36;11.30;82.10
12329;DHT22;6230;52.390;10.256;2022-12-22T07:23:02;11.20;82.00
12329;DHT22;6230;52.390;10.256;2022-12-22T07:25:27;11.20;82.00
12329;DHT22;6230;52.390;10.256;2022-12-22T07:27:53;11.20;82.00
12329;DHT22;6230;52.390;10.256;2022-12-22T07:30:18;11.20;82.10
12329;DHT22;6230;52.390;10.256;2022-12-22T07:32:44;11.30;82.30
12329;DHT22;6230;52.390;10.256;2022-12-22T07:35:09;11.20;82.20
12329;DHT22;6230;52.390;10.256;2022-12-22T07:37:35;11.20;82.20
12329;DHT22;6230;52.390;10.256;2022-12-22T07:40:00;11.30;82.30
12329;DHT22;6230;52.390;10.256;2022-12-22T07:42:26;11.30;82.20
12329;DHT22;6230;52.390;10.256;2022-12-22T07:45:11;11.30;82.20
12329;DHT22;6230;52.390;10.256;2022-12-22T07:47:37;11.40;82.10
12329;DHT22;6230;52.390;10.256;2022-12-22T07:50:04;11.40;82.00
12329;DHT22;6230;52.390;10.256;2022-12-22T07:52:49;11.40;82.00
12329;DHT22;6230;52.390;10.256;2022-12-22T07:55:15;11.40;81.90
12329;DHT22;6230;52.390;10.256;2022-12-22T07:57:40;11.40;82.00
12329;DHT22;6230;52.390;10.256;2022-12-22T08:00:07;11.40;81.90
12329;DHT22;6230;52.390;10.256;2022-12-22T08:02:32;11.50;82.00
12329;DHT22;6230;52.390;10.256;2022-12-22T08:04:58;11.50;82.00
12329;DHT22;6230;52.390;10.256;2022-12-22T08:07:23;11.50;81.90
12329;DHT22;6230;52.390;10.256;2022-12-22T08:09:49;11.50;82.00
12329;DHT22;6230;52.390;10.256;2022-12-22T08:12:14;11.50;81.90
12329;DHT22;6230;52.390;10.256;2022-12-22T08:14:40;11.50;81.90
12329;DHT22;6230;52.390;10.256;2022-12-22T08:17:10;11.60;82.00
12329;DHT22;6230;52.390;10.256;2022-12-22T08:19:36;11.50;82.00
12329;DHT22;6230;52.390;10.256;2022-12-22T08:22:02;11.50;82.20
12329;DHT22;6230;52.390;10.256;2022-12-22T08:24:28;11.50;82.10
12329;DHT22;6230;52.390;10.256;2022-12-22T08:26:56;11.60;82.20
12329;DHT22;6230;52.390;10.256;2022-12-22T08:29:45;11.50;82.10
12329;DHT22;6230;52.390;10.256;2022-12-22T08:32:12;11.50;82.20
12329;DHT22;6230;52.390;10.256;2022-12-22T08:34:38;11.50;82.20
12329;DHT22;6230;52.390;10.256;2022-12-22T08:37:06;11.60;82.30
12329;DHT22;6230;52.390;10.256;2022-12-22T08:39:36;11.60;82.30
12329;DHT22;6230;52.390;10.256;2022-12-22T08:42:04;11.60;82.30
12329;DHT22;6230;52.390;10.256;2022-12-22T08:44:30;11.60;82.20
12329;DHT22;6230;52.390;10.256;2022-12-22T08:46:57;11.60;82.20
12329;DHT22;6230;52.390;10.256;2022-12-22T08:49:24;11.70;82.20
12329;DHT22;6230;52.390;10.256;2022-12-22T08:51:50;11.70;82.20
12329;DHT22;6230;52.390;10.256;2022-12-22T08:54:16;11.70;82.20
12329;DHT22;6230;52.390;10.256;2022-12-22T08:56:42;11.70;82.20
12329;DHT22;6230;52.390;10.256;2022-12-22T08:59:08;11.70;82.10
12329;DHT22;6230;52.390;10.256;2022-12-22T09:01:36;11.80;82.10
12329;DHT22;6230;52.390;10.256;2022-12-22T09:04:02;11.80;82.10
12329;DHT22;6230;52.390;10.256;2022-12-22T09:06:28;11.80;82.00
12329;DHT22;6230;52.390;10.256;2022-12-22T09:08:59;11.80;82.30
12329;DHT22;6230;52.390;10.256;2022-12-22T09:11:25;11.80;81.90
12329;DHT22;6230;52.390;10.256;2022-12-22T09:13:53;11.80;81.80
12329;DHT22;6230;52.390;10.256;2022-12-22T09:16:20;11.80;81.90
12329;DHT22;6230;52.390;10.256;2022-12-22T09:18:46;11.80;81.90
12329;DHT22;6230;52.390;10.256;2022-12-22T09:21:12;11.80;82.00
12329;DHT22;6230;52.390;10.256;2022-12-22T09:23:37;11.80;82.00
12329;DHT22;6230;52.390;10.256;2022-12-22T09:26:08;11.80;82.00
12329;DHT22;6230;52.390;10.256;2022-12-22T09:28:35;11.80;81.90
12329;DHT22;6230;52.390;10.256;2022-12-22T09:31:01;11.90;81.90
12329;DHT22;6230;52.390;10.256;2022-12-22T09:33:26;11.90;81.90
12329;DHT22;6230;52.390;10.256;2022-12-22T09:35:52;11.90;81.90
12329;DHT22;6230;52.390;10.256;2022-12-22T09:38:17;11.90;81.90
12329;DHT22;6230;52.390;10.256;2022-12-22T09:40:43;11.90;81.90
12329;DHT22;6230;52.390;10.256;2022-12-22T09:43:15;11.90;81.90
12329;DHT22;6230;52.390;10.256;2022-12-22T09:45:41;11.90;81.90
12329;DHT22;6230;52.390;10.256;2022-12-22T09:48:11;11.90;81.90
12329;DHT22;6230;52.390;10.256;2022-12-22T09:50:39;11.90;82.00
12329;DHT22;6230;52.390;10.256;2022-12-22T09:53:10;11.90;81.90
12329;DHT22;6230;52.390;10.256;2022-12-22T09:55:46;11.90;82.00
12329;DHT22;6230;52.390;10.256;2022-12-22T09:58:32;11.90;82.00
12329;DHT22;6230;52.390;10.256;2022-12-22T10:08:28;12.00;81.90
12329;DHT22;6230;52.390;10.256;2022-12-22T10:10:56;12.00;81.90
12329;DHT22;6230;52.390;10.256;2022-12-22T10:13:22;12.00;81.80
12329;DHT22;6230;52.390;10.256;2022-12-22T10:15:48;12.00;81.80
12329;DHT22;6230;52.390;10.256;2022-12-22T10:18:19;12.00;81.80
12329;DHT22;6230;52.390;10.256;2022-12-22T10:21:06;12.00;81.80
12329;DHT22;6230;52.390;10.256;2022-12-22T10:23:34;12.00;81.80
12329;DHT22;6230;52.390;10.256;2022-12-22T10:28:48;12.00;82.00
12329;DHT22;6230;52.390;10.256;2022-12-22T10:31:23;12.00;81.80
12329;DHT22;6230;52.390;10.256;2022-12-22T10:33:52;12.00;82.00
12329;DHT22;6230;52.390;10.256;2022-12-22T10:36:24;12.00;82.00
12329;DHT22;6230;52.390;10.256;2022-12-22T10:41:27;12.00;82.10
12329;DHT22;6230;52.390;10.256;2022-12-22T10:44:00;12.00;82.00
12329;DHT22;6230;52.390;10.256;2022-12-22T10:46:34;12.00;82.10
12329;DHT22;6230;52.390;10.256;2022-12-22T10:49:34;12.00;82.10
12329;DHT22;6230;52.390;10.256;2022-12-22T10:52:25;12.00;83.10
12329;DHT22;6230;52.390;10.256;2022-12-22T10:54:51;12.00;82.20
12329;DHT22;6230;52.390;10.256;2022-12-22T11:04:51;12.00;82.30
12329;DHT22;6230;52.390;10.256;2022-12-22T11:07:18;12.10;82.40
12329;DHT22;6230;52.390;10.256;2022-12-22T11:09:44;12.10;82.30
12329;DHT22;6230;52.390;10.256;2022-12-22T11:26:29;12.10;82.70
12329;DHT22;6230;52.390;10.256;2022-12-22T11:32:27;12.30;82.90
12329;DHT22;6230;52.390;10.256;2022-12-22T11:38:47;12.30;82.60
12329;DHT22;6230;52.390;10.256;2022-12-22T11:41:15;12.30;82.60
12329;DHT22;6230;52.390;10.256;2022-12-22T11:46:35;12.20;82.60
12329;DHT22;6230;52.390;10.256;2022-12-22T11:52:10;12.20;82.70
12329;DHT22;6230;52.390;10.256;2022-12-22T11:55:10;12.20;82.70
12329;DHT22;6230;52.390;10.256;2022-12-22T12:00:11;12.10;82.80
12329;DHT22;6230;52.390;10.256;2022-12-22T12:11:06;12.10;83.10
12329;DHT22;6230;52.390;10.256;2022-12-22T12:19:25;12.10;83.20
12329;DHT22;6230;52.390;10.256;2022-12-22T12:22:02;12.10;83.20
12329;DHT22;6230;52.390;10.256;2022-12-22T12:32:39;12.10;83.20
12329;DHT22;6230;52.390;10.256;2022-12-22T12:39:03;12.20;83.30
12329;DHT22;6230;52.390;10.256;2022-12-22T12:43:25;12.20;83.00
12329;DHT22;6230;52.390;10.256;2022-12-22T12:45:51;12.30;83.00
12329;DHT22;6230;52.390;10.256;2022-12-22T12:50:53;12.30;83.00
12329;DHT22;6230;52.390;10.256;2022-12-22T12:53:21;12.30;83.00
12329;DHT22;6230;52.390;10.256;2022-12-22T13:01:08;12.30;82.90
12329;DHT22;6230;52.390;10.256;2022-12-22T13:03:39;12.30;82.80
12329;DHT22;6230;52.390;10.256;2022-12-22T13:06:08;12.30;82.80
12329;DHT22;6230;52.390;10.256;2022-12-22T13:11:35;12.30;82.80
12329;DHT22;6230;52.390;10.256;2022-12-22T13:14:01;12.30;82.70
12329;DHT22;6230;52.390;10.256;2022-12-22T13:16:33;12.30;82.60
12329;DHT22;6230;52.390;10.256;2022-12-22T13:19:03;12.30;82.70
12329;DHT22;6230;52.390;10.256;2022-12-22T13:21:38;12.20;82.70
12329;DHT22;6230;52.390;10.256;2022-12-22T13:26:37;12.20;82.70
12329;DHT22;6230;52.390;10.256;2022-12-22T13:29:16;12.20;82.70
12329;DHT22;6230;52.390;10.256;2022-12-22T13:31:49;12.20;82.70
12329;DHT22;6230;52.390;10.256;2022-12-22T13:34:52;12.20;82.70
12329;DHT22;6230;52.390;10.256;2022-12-22T13:37:24;12.20;82.80
12329;DHT22;6230;52.390;10.256;2022-12-22T13:40:04;12.10;82.50
12329;DHT22;6230;52.390;10.256;2022-12-22T13:42:34;12.10;82.70
12329;DHT22;6230;52.390;10.256;2022-12-22T13:45:03;12.10;82.60
12329;DHT22;6230;52.390;10.256;2022-12-22T13:47:30;12.10;82.60
12329;DHT22;6230;52.390;10.256;2022-12-22T13:49:57;12.10;82.50
12329;DHT22;6230;52.390;10.256;2022-12-22T13:52:22;12.10;82.50
12329;DHT22;6230;52.390;10.256;2022-12-22T13:54:48;12.10;82.40
12329;DHT22;6230;52.390;10.256;2022-12-22T13:57:17;12.10;82.30
12329;DHT22;6230;52.390;10.256;2022-12-22T13:59:44;12.10;82.30
12329;DHT22;6230;52.390;10.256;2022-12-22T14:04:38;12.00;82.10
12329;DHT22;6230;52.390;10.256;2022-12-22T14:07:13;12.00;82.00
12329;DHT22;6230;52.390;10.256;2022-12-22T14:09:43;12.00;82.00
12329;DHT22;6230;52.390;10.256;2022-12-22T14:12:26;12.00;81.90
12329;DHT22;6230;52.390;10.256;2022-12-22T14:14:53;12.00;81.90
12329;DHT22;6230;52.390;10.256;2022-12-22T14:17:32;11.90;81.70
12329;DHT22;6230;52.390;10.256;2022-12-22T14:20:16;11.90;81.70
12329;DHT22;6230;52.390;10.256;2022-12-22T14:23:07;11.90;81.60
12329;DHT22;6230;52.390;10.256;2022-12-22T14:25:39;11.90;81.60
12329;DHT22;6230;52.390;10.256;2022-12-22T14:28:15;11.90;81.40
12329;DHT22;6230;52.390;10.256;2022-12-22T14:30:45;11.90;81.40
12329;DHT22;6230;52.390;10.256;2022-12-22T14:36:21;11.80;81.20
12329;DHT22;6230;52.390;10.256;2022-12-22T14:41:27;11.80;80.80
12329;DHT22;6230;52.390;10.256;2022-12-22T14:44:44;11.80;80.70
12329;DHT22;6230;52.390;10.256;2022-12-22T14:49:54;11.60;80.50
12329;DHT22;6230;52.390;10.256;2022-12-22T14:52:51;11.60;80.50
12329;DHT22;6230;52.390;10.256;2022-12-22T14:55:27;11.60;80.50
12329;DHT22;6230;52.390;10.256;2022-12-22T14:57:57;11.50;80.40
12329;DHT22;6230;52.390;10.256;2022-12-22T15:02:52;11.40;80.30
12329;DHT22;6230;52.390;10.256;2022-12-22T15:07:54;11.40;80.40
12329;DHT22;6230;52.390;10.256;2022-12-22T15:10:21;11.40;80.40
12329;DHT22;6230;52.390;10.256;2022-12-22T15:12:47;11.30;80.40
12329;DHT22;6230;52.390;10.256;2022-12-22T15:15:16;11.30;80.40
12329;DHT22;6230;52.390;10.256;2022-12-22T15:17:45;11.30;80.50
12329;DHT22;6230;52.390;10.256;2022-12-22T15:20:23;11.20;80.30
12329;DHT22;6230;52.390;10.256;2022-12-22T15:22:49;11.20;80.40
12329;DHT22;6230;52.390;10.256;2022-12-22T15:25:17;11.20;80.40
12329;DHT22;6230;52.390;10.256;2022-12-22T15:27:43;11.20;80.40
12329;DHT22;6230;52.390;10.256;2022-12-22T15:30:11;11.10;80.50
12329;DHT22;6230;52.390;10.256;2022-12-22T15:32:39;11.10;80.50
12329;DHT22;6230;52.390;10.256;2022-12-22T15:35:28;11.10;80.40
12329;DHT22;6230;52.390;10.256;2022-12-22T15:37:54;11.10;80.50
12329;DHT22;6230;52.390;10.256;2022-12-22T15:40:22;11.00;80.30
12329;DHT22;6230;52.390;10.256;2022-12-22T15:42:48;11.00;80.40
12329;DHT22;6230;52.390;10.256;2022-12-22T15:45:14;11.00;80.30
12329;DHT22;6230;52.390;10.256;2022-12-22T15:47:43;11.00;80.40
12329;DHT22;6230;52.390;10.256;2022-12-22T15:50:21;10.90;80.40
12329;DHT22;6230;52.390;10.256;2022-12-22T15:52:50;10.90;80.40
12329;DHT22;6230;52.390;10.256;2022-12-22T15:55:18;10.90;80.50
12329;DHT22;6230;52.390;10.256;2022-12-22T15:57:44;10.80;80.40
12329;DHT22;6230;52.390;10.256;2022-12-22T16:00:11;10.70;80.50
12329;DHT22;6230;52.390;10.256;2022-12-22T16:02:38;10.70;80.40
12329;DHT22;6230;52.390;10.256;2022-12-22T16:05:04;10.70;80.50
12329;DHT22;6230;52.390;10.256;2022-12-22T16:07:30;10.70;80.50
12329;DHT22;6230;52.390;10.256;2022-12-22T16:09:56;10.60;80.50
12329;DHT22;6230;52.390;10.256;2022-12-22T16:12:23;10.60;80.50
12329;DHT22;6230;52.390;10.256;2022-12-22T16:14:51;10.60;80.60
12329;DHT22;6230;52.390;10.256;2022-12-22T16:17:20;10.50;80.50
12329;DHT22;6230;52.390;10.256;2022-12-22T16:19:46;10.50;80.40
12329;DHT22;6230;52.390;10.256;2022-12-22T16:22:17;10.60;80.40
12329;DHT22;6230;52.390;10.256;2022-12-22T16:24:45;10.50;80.40
12329;DHT22;6230;52.390;10.256;2022-12-22T16:27:12;10.40;80.30
12329;DHT22;6230;52.390;10.256;2022-12-22T16:29:41;10.40;80.30
12329;DHT22;6230;52.390;10.256;2022-12-22T16:32:36;10.40;80.20
12329;DHT22;6230;52.390;10.256;2022-12-22T16:37:35;10.40;80.00
12329;DHT22;6230;52.390;10.256;2022-12-22T16:40:01;10.40;80.00
12329;DHT22;6230;52.390;10.256;2022-12-22T16:42:27;10.40;80.00
12329;DHT22;6230;52.390;10.256;2022-12-22T16:44:53;10.40;79.90
12329;DHT22;6230;52.390;10.256;2022-12-22T16:47:25;10.40;79.90
12329;DHT22;6230;52.390;10.256;2022-12-22T16:49:52;10.40;79.80
12329;DHT22;6230;52.390;10.256;2022-12-22T16:52:26;10.40;79.70
12329;DHT22;6230;52.390;10.256;2022-12-22T16:54:54;10.30;79.60
12329;DHT22;6230;52.390;10.256;2022-12-22T16:57:19;10.30;79.50
12329;DHT22;6230;52.390;10.256;2022-12-22T16:59:45;10.30;79.60
12329;DHT22;6230;52.390;10.256;2022-12-22T17:02:37;10.30;79.50
12329;DHT22;6230;52.390;10.256;2022-12-22T17:05:02;10.20;79.40
12329;DHT22;6230;52.390;10.256;2022-12-22T17:07:31;10.20;79.40
12329;DHT22;6230;52.390;10.256;2022-12-22T17:09:59;10.20;79.30
12329;DHT22;6230;52.390;10.256;2022-12-22T17:12:28;10.20;79.30
12329;DHT22;6230;52.390;10.256;2022-12-22T17:14:55;10.20;79.30
12329;DHT22;6230;52.390;10.256;2022-12-22T17:17:21;10.10;79.10
12329;DHT22;6230;52.390;10.256;2022-12-22T17:19:51;10.10;79.10
12329;DHT22;6230;52.390;10.256;2022-12-22T17:22:37;10.10;79.10
12329;DHT22;6230;52.390;10.256;2022-12-22T17:25:04;10.10;79.00
12329;DHT22;6230;52.390;10.256;2022-12-22T17:27:31;10.00;78.90
12329;DHT22;6230;52.390;10.256;2022-12-22T17:29:59;10.00;78.90
12329;DHT22;6230;52.390;10.256;2022-12-22T17:32:25;10.00;78.80
12329;DHT22;6230;52.390;10.256;2022-12-22T17:34:51;10.00;78.80
12329;DHT22;6230;52.390;10.256;2022-12-22T17:37:19;10.00;78.80
12329;DHT22;6230;52.390;10.256;2022-12-22T17:39:51;10.00;78.80
12329;DHT22;6230;52.390;10.256;2022-12-22T17:42:22;10.00;78.70
12329;DHT22;6230;52.390;10.256;2022-12-22T17:44:49;10.00;78.70
12329;DHT22;6230;52.390;10.256;2022-12-22T17:47:16;10.00;78.60
12329;DHT22;6230;52.390;10.256;2022-12-22T17:49:43;10.00;78.70
12329;DHT22;6230;52.390;10.256;2022-12-22T17:52:23;10.00;78.60
12329;DHT22;6230;52.390;10.256;2022-12-22T17:54:51;10.00;78.60
12329;DHT22;6230;52.390;10.256;2022-12-22T17:57:23;10.00;78.60
12329;DHT22;6230;52.390;10.256;2022-12-22T17:59:49;10.00;78.60
12329;DHT22;6230;52.390;10.256;2022-12-22T18:02:19;10.00;78.50
12329;DHT22;6230;52.390;10.256;2022-12-22T18:04:46;10.10;78.60